sensor_id;sensor_type;location;lat;lon;timestamp;temperature;humidity
67942;SHT31;54731;42.600;23.476;2023-05-27T00:01:12;13.66;83.64
67942;SHT31;54731;42.600;23.476;2023-05-27T00:03:37;13.63;84.19
67942;SHT31;54731;42.600;23.476;2023-05-27T00:06:02;13.62;84.48
67942;SHT31;54731;42.600;23.476;2023-05-27T00:08:28;13.56;85.02
67942;SHT31;54731;42.600;23.476;2023-05-27T00:10:53;13.56;84.98
67942;SHT31;54731;42.600;23.476;2023-05-27T00:13:18;13.60;84.80
67942;SHT31;54731;42.600;23.476;2023-05-27T00:15:44;13.62;84.31
67942;SHT31;54731;42.600;23.476;2023-05-27T00:18:09;13.53;84.03
67942;SHT31;54731;42.600;23.476;2023-05-27T00:20:34;13.36;84.17
67942;SHT31;54731;42.600;23.476;2023-05-27T00:23:00;13.39;84.38
67942;SHT31;54731;42.600;23.476;2023-05-27T00:25:25;13.43;84.23
67942;SHT31;54731;42.600;23.476;2023-05-27T00:27:51;13.58;84.38
67942;SHT31;54731;42.600;23.476;2023-05-27T00:30:16;13.63;84.29
67942;SHT31;54731;42.600;23.476;2023-05-27T00:32:42;13.65;84.09
67942;SHT31;54731;42.600;23.476;2023-05-27T00:35:07;13.58;83.78
67942;SHT31;54731;42.600;23.476;2023-05-27T00:37:33;13.58;83.21
67942;SHT31;54731;42.600;23.476;2023-05-27T00:39:58;13.58;83.06
67942;SHT31;54731;42.600;23.476;2023-05-27T00:42:24;13.49;83.21
67942;SHT31;54731;42.600;23.476;2023-05-27T00:44:49;13.46;83.48
67942;SHT31;54731;42.600;23.476;2023-05-27T00:47:15;13.40;83.73
67942;SHT31;54731;42.600;23.476;2023-05-27T00:49:40;13.48;83.92
67942;SHT31;54731;42.600;23.476;2023-05-27T00:52:06;13.45;84.19
67942;SHT31;54731;42.600;23.476;2023-05-27T00:54:31;13.39;83.95
67942;SHT31;54731;42.600;23.476;2023-05-27T00:56:57;13.42;83.48
67942;SHT31;54731;42.600;23.476;2023-05-27T00:59:23;13.42;83.82
67942;SHT31;54731;42.600;23.476;2023-05-27T01:01:48;13.43;83.74
67942;SHT31;54731;42.600;23.476;2023-05-27T01:04:13;13.36;83.55
67942;SHT31;54731;42.600;23.476;2023-05-27T01:12:41;13.45;82.67
67942;SHT31;54731;42.600;23.476;2023-05-27T01:14:36;13.43;82.60
67942;SHT31;54731;42.600;23.476;2023-05-27T01:17:05;13.40;82.58
67942;SHT31;54731;42.600;23.476;2023-05-27T01:19:33;13.39;82.51
67942;SHT31;54731;42.600;23.476;2023-05-27T01:22:00;13.40;82.55
67942;SHT31;54731;42.600;23.476;2023-05-27T01:24:26;13.36;82.58
67942;SHT31;54731;42.600;23.476;2023-05-27T01:26:52;13.40;82.58
67942;SHT31;54731;42.600;23.476;2023-05-27T01:29:17;13.28;83.13
67942;SHT31;54731;42.600;23.476;2023-05-27T01:31:50;13.22;83.70
67942;SHT31;54731;42.600;23.476;2023-05-27T01:34:19;13.16;83.45
67942;SHT31;54731;42.600;23.476;2023-05-27T01:36:49;13.14;83.62
67942;SHT31;54731;42.600;23.476;2023-05-27T01:39:16;13.15;84.05
67942;SHT31;54731;42.600;23.476;2023-05-27T01:41:42;13.14;84.04
67942;SHT31;54731;42.600;23.476;2023-05-27T01:44:08;13.09;84.01
67942;SHT31;54731;42.600;23.476;2023-05-27T01:46:35;13.08;83.99
67942;SHT31;54731;42.600;23.476;2023-05-27T01:49:00;13.14;83.75
67942;SHT31;54731;42.600;23.476;2023-05-27T01:51:25;13.14;83.75
67942;SHT31;54731;42.600;23.476;2023-05-27T01:53:51;13.09;83.87
67942;SHT31;54731;42.600;23.476;2023-05-27T01:56:16;13.05;83.63
67942;SHT31;54731;42.600;23.476;2023-05-27T01:58:41;13.05;83.63
67942;SHT31;54731;42.600;23.476;2023-05-27T02:01:07;13.04;83.54
67942;SHT31;54731;42.600;23.476;2023-05-27T02:03:32;13.06;83.35
67942;SHT31;54731;42.600;23.476;2023-05-27T02:05:57;13.12;83.21
67942;SHT31;54731;42.600;23.476;2023-05-27T02:08:22;13.11;83.00
67942;SHT31;54731;42.600;23.476;2023-05-27T02:10:48;13.08;83.02
67942;SHT31;54731;42.600;23.476;2023-05-27T02:13:13;13.11;82.81
67942;SHT31;54731;42.600;23.476;2023-05-27T02:15:39;13.08;82.88
67942;SHT31;54731;42.600;23.476;2023-05-27T02:18:04;13.11;82.96
67942;SHT31;54731;42.600;23.476;2023-05-27T02:20:29;13.14;82.73
67942;SHT31;54731;42.600;23.476;2023-05-27T02:22:55;13.05;82.71
67942;SHT31;54731;42.600;23.476;2023-05-27T02:25:20;12.98;82.85
67942;SHT31;54731;42.600;23.476;2023-05-27T02:27:45;13.01;82.91
67942;SHT31;54731;42.600;23.476;2023-05-27T02:30:11;12.96;82.84
67942;SHT31;54731;42.600;23.476;2023-05-27T02:32:36;12.96;83.04
67942;SHT31;54731;42.600;23.476;2023-05-27T02:35:02;12.92;83.28
67942;SHT31;54731;42.600;23.476;2023-05-27T02:37:27;12.98;83.11
67942;SHT31;54731;42.600;23.476;2023-05-27T02:39:53;13.02;82.82
67942;SHT31;54731;42.600;23.476;2023-05-27T02:42:18;12.96;83.02
67942;SHT31;54731;42.600;23.476;2023-05-27T02:44:43;13.01;83.07
67942;SHT31;54731;42.600;23.476;2023-05-27T02:47:09;12.95;83.11
67942;SHT31;54731;42.600;23.476;2023-05-27T02:49:34;12.92;83.25
67942;SHT31;54731;42.600;23.476;2023-05-27T02:51:59;12.96;83.06
67942;SHT31;54731;42.600;23.476;2023-05-27T02:54:24;12.96;83.16
67942;SHT31;54731;42.600;23.476;2023-05-27T02:56:50;12.99;83.32
67942;SHT31;54731;42.600;23.476;2023-05-27T02:59:15;13.01;83.21
67942;SHT31;54731;42.600;23.476;2023-05-27T03:01:40;12.99;83.34
67942;SHT31;54731;42.600;23.476;2023-05-27T03:04:06;13.05;83.47
67942;SHT31;54731;42.600;23.476;2023-05-27T03:06:31;13.05;83.41
67942;SHT31;54731;42.600;23.476;2023-05-27T03:08:56;13.06;83.44
67942;SHT31;54731;42.600;23.476;2023-05-27T03:11:22;13.06;83.06
67942;SHT31;54731;42.600;23.476;2023-05-27T03:13:47;13.05;83.13
67942;SHT31;54731;42.600;23.476;2023-05-27T03:16:12;13.12;83.07
67942;SHT31;54731;42.600;23.476;2023-05-27T03:18:37;13.08;83.18
67942;SHT31;54731;42.600;23.476;2023-05-27T03:21:03;13.08;83.40
67942;SHT31;54731;42.600;23.476;2023-05-27T03:23:28;13.09;83.37
67942;SHT31;54731;42.600;23.476;2023-05-27T03:25:54;13.14;83.37
67942;SHT31;54731;42.600;23.476;2023-05-27T03:28:19;13.09;83.34
67942;SHT31;54731;42.600;23.476;2023-05-27T03:30:44;13.19;82.55
67942;SHT31;54731;42.600;23.476;2023-05-27T03:33:10;13.18;82.39
67942;SHT31;54731;42.600;23.476;2023-05-27T03:35:35;13.09;82.81
67942;SHT31;54731;42.600;23.476;2023-05-27T03:38:00;13.02;83.86
67942;SHT31;54731;42.600;23.476;2023-05-27T03:40:26;13.02;83.49
67942;SHT31;54731;42.600;23.476;2023-05-27T03:42:53;13.08;83.33
67942;SHT31;54731;42.600;23.476;2023-05-27T03:45:18;13.06;83.64
67942;SHT31;54731;42.600;23.476;2023-05-27T03:47:43;13.15;83.68
67942;SHT31;54731;42.600;23.476;2023-05-27T03:50:09;13.18;83.66
67942;SHT31;54731;42.600;23.476;2023-05-27T03:52:34;13.20;84.22
67942;SHT31;54731;42.600;23.476;2023-05-27T03:55:00;13.20;84.13
67942;SHT31;54731;42.600;23.476;2023-05-27T03:57:25;13.18;84.08
67942;SHT31;54731;42.600;23.476;2023-05-27T03:59:50;13.20;84.26
67942;SHT31;54731;42.600;23.476;2023-05-27T04:02:16;13.22;84.15
67942;SHT31;54731;42.600;23.476;2023-05-27T04:04:41;13.22;83.85
67942;SHT31;54731;42.600;23.476;2023-05-27T04:07:06;13.25;83.85
67942;SHT31;54731;42.600;23.476;2023-05-27T04:09:31;13.26;83.97
67942;SHT31;54731;42.600;23.476;2023-05-27T04:11:57;13.34;84.18
67942;SHT31;54731;42.600;23.476;2023-05-27T04:14:22;13.35;84.12
67942;SHT31;54731;42.600;23.476;2023-05-27T04:16:48;13.36;84.19
67942;SHT31;54731;42.600;23.476;2023-05-27T04:19:13;13.40;83.90
67942;SHT31;54731;42.600;23.476;2023-05-27T04:21:38;13.43;83.96
67942;SHT31;54731;42.600;23.476;2023-05-27T04:24:04;13.49;83.67
67942;SHT31;54731;42.600;23.476;2023-05-27T04:26:29;13.46;83.22
67942;SHT31;54731;42.600;23.476;2023-05-27T04:28:55;13.55;83.34
67942;SHT31;54731;42.600;23.476;2023-05-27T04:31:21;13.56;83.15
67942;SHT31;54731;42.600;23.476;2023-05-27T04:33:46;13.58;83.04
67942;SHT31;54731;42.600;23.476;2023-05-27T04:36:11;13.60;82.93
67942;SHT31;54731;42.600;23.476;2023-05-27T04:38:37;13.65;82.94
67942;SHT31;54731;42.600;23.476;2023-05-27T04:41:02;13.70;82.92
67942;SHT31;54731;42.600;23.476;2023-05-27T04:43:28;13.76;82.97
67942;SHT31;54731;42.600;23.476;2023-05-27T04:45:53;13.81;83.01
67942;SHT31;54731;42.600;23.476;2023-05-27T04:48:19;13.86;83.07
67942;SHT31;54731;42.600;23.476;2023-05-27T04:50:44;13.91;82.85
67942;SHT31;54731;42.600;23.476;2023-05-27T04:53:09;13.89;82.95
67942;SHT31;54731;42.600;23.476;2023-05-27T04:55:35;13.93;82.36
67942;SHT31;54731;42.600;23.476;2023-05-27T04:58:01;14.06;82.21
67942;SHT31;54731;42.600;23.476;2023-05-27T05:00:27;14.14;81.82
67942;SHT31;54731;42.600;23.476;2023-05-27T05:02:52;14.18;80.90
67942;SHT31;54731;42.600;23.476;2023-05-27T05:05:17;14.25;80.50
67942;SHT31;54731;42.600;23.476;2023-05-27T05:07:42;14.23;80.30
67942;SHT31;54731;42.600;23.476;2023-05-27T05:10:09;14.33;80.37
67942;SHT31;54731;42.600;23.476;2023-05-27T05:12:34;14.25;81.36
67942;SHT31;54731;42.600;23.476;2023-05-27T05:15:00;14.18;81.49
67942;SHT31;54731;42.600;23.476;2023-05-27T05:17:25;14.24;81.70
67942;SHT31;54731;42.600;23.476;2023-05-27T05:19:54;14.33;81.08
67942;SHT31;54731;42.600;23.476;2023-05-27T05:22:19;14.31;81.21
67942;SHT31;54731;42.600;23.476;2023-05-27T05:24:45;14.33;81.92
67942;SHT31;54731;42.600;23.476;2023-05-27T05:27:11;14.40;81.82
67942;SHT31;54731;42.600;23.476;2023-05-27T05:29:36;14.33;82.26
67942;SHT31;54731;42.600;23.476;2023-05-27T05:32:02;14.37;82.38
67942;SHT31;54731;42.600;23.476;2023-05-27T05:34:27;14.40;82.34
67942;SHT31;54731;42.600;23.476;2023-05-27T05:36:53;14.42;82.76
67942;SHT31;54731;42.600;23.476;2023-05-27T05:39:18;14.52;82.75
67942;SHT31;54731;42.600;23.476;2023-05-27T05:41:43;14.61;82.55
67942;SHT31;54731;42.600;23.476;2023-05-27T05:44:09;14.68;82.56
67942;SHT31;54731;42.600;23.476;2023-05-27T05:46:34;14.78;81.99
67942;SHT31;54731;42.600;23.476;2023-05-27T05:48:59;14.78;81.40
67942;SHT31;54731;42.600;23.476;2023-05-27T05:51:25;14.74;81.13
67942;SHT31;54731;42.600;23.476;2023-05-27T05:53:50;14.79;80.71
67942;SHT31;54731;42.600;23.476;2023-05-27T05:56:15;14.85;81.30
67942;SHT31;54731;42.600;23.476;2023-05-27T05:58:40;14.96;79.96
67942;SHT31;54731;42.600;23.476;2023-05-27T06:01:06;14.98;79.47
67942;SHT31;54731;42.600;23.476;2023-05-27T06:03:31;15.00;79.87
67942;SHT31;54731;42.600;23.476;2023-05-27T06:05:56;15.07;79.92
67942;SHT31;54731;42.600;23.476;2023-05-27T06:08:22;15.10;79.74
67942;SHT31;54731;42.600;23.476;2023-05-27T06:10:47;15.18;79.65
67942;SHT31;54731;42.600;23.476;2023-05-27T06:13:12;14.99;78.86
67942;SHT31;54731;42.600;23.476;2023-05-27T06:15:38;15.00;78.73
67942;SHT31;54731;42.600;23.476;2023-05-27T06:18:04;15.13;78.39
67942;SHT31;54731;42.600;23.476;2023-05-27T06:20:29;15.16;77.87
67942;SHT31;54731;42.600;23.476;2023-05-27T06:22:55;15.25;77.93
67942;SHT31;54731;42.600;23.476;2023-05-27T06:25:20;15.37;78.35
67942;SHT31;54731;42.600;23.476;2023-05-27T06:27:45;15.40;77.72
67942;SHT31;54731;42.600;23.476;2023-05-27T06:30:11;15.36;77.78
67942;SHT31;54731;42.600;23.476;2023-05-27T06:32:37;15.40;76.73
67942;SHT31;54731;42.600;23.476;2023-05-27T06:35:02;15.42;76.62
67942;SHT31;54731;42.600;23.476;2023-05-27T06:37:27;15.50;76.19
67942;SHT31;54731;42.600;23.476;2023-05-27T06:39:53;15.50;76.40
67942;SHT31;54731;42.600;23.476;2023-05-27T06:42:18;15.56;76.36
67942;SHT31;54731;42.600;23.476;2023-05-27T06:44:43;15.63;76.39
67942;SHT31;54731;42.600;23.476;2023-05-27T06:47:09;15.49;76.43
67942;SHT31;54731;42.600;23.476;2023-05-27T06:49:34;15.54;76.82
67942;SHT31;54731;42.600;23.476;2023-05-27T06:51:59;15.63;76.59
67942;SHT31;54731;42.600;23.476;2023-05-27T06:54:24;15.49;76.22
67942;SHT31;54731;42.600;23.476;2023-05-27T06:56:50;15.50;76.49
67942;SHT31;54731;42.600;23.476;2023-05-27T06:59:15;15.50;77.26
67942;SHT31;54731;42.600;23.476;2023-05-27T07:01:40;15.49;77.38
67942;SHT31;54731;42.600;23.476;2023-05-27T07:04:06;15.50;77.43
67942;SHT31;54731;42.600;23.476;2023-05-27T07:06:31;15.59;77.49
67942;SHT31;54731;42.600;23.476;2023-05-27T07:08:56;15.67;77.19
67942;SHT31;54731;42.600;23.476;2023-05-27T07:11:22;15.73;77.12
67942;SHT31;54731;42.600;23.476;2023-05-27T07:13:48;15.81;77.59
67942;SHT31;54731;42.600;23.476;2023-05-27T07:16:13;15.87;77.42
67942;SHT31;54731;42.600;23.476;2023-05-27T07:18:38;15.98;76.78
67942;SHT31;54731;42.600;23.476;2023-05-27T07:21:04;16.07;76.83
67942;SHT31;54731;42.600;23.476;2023-05-27T07:23:29;16.21;76.96
67942;SHT31;54731;42.600;23.476;2023-05-27T07:25:54;16.26;76.14
67942;SHT31;54731;42.600;23.476;2023-05-27T07:28:20;16.40;76.10
67942;SHT31;54731;42.600;23.476;2023-05-27T07:30:45;16.49;75.92
67942;SHT31;54731;42.600;23.476;2023-05-27T07:33:10;16.55;75.63
67942;SHT31;54731;42.600;23.476;2023-05-27T07:35:36;16.66;75.57
67942;SHT31;54731;42.600;23.476;2023-05-27T07:38:01;16.82;74.66
67942;SHT31;54731;42.600;23.476;2023-05-27T07:40:26;17.00;72.58
67942;SHT31;54731;42.600;23.476;2023-05-27T07:42:52;16.96;69.21
67942;SHT31;54731;42.600;23.476;2023-05-27T07:45:17;17.05;68.82
67942;SHT31;54731;42.600;23.476;2023-05-27T07:47:42;17.06;68.91
67942;SHT31;54731;42.600;23.476;2023-05-27T07:50:08;16.89;69.83
67942;SHT31;54731;42.600;23.476;2023-05-27T07:52:33;16.99;70.01
67942;SHT31;54731;42.600;23.476;2023-05-27T07:54:59;17.07;70.29
67942;SHT31;54731;42.600;23.476;2023-05-27T07:57:24;17.23;71.40
67942;SHT31;54731;42.600;23.476;2023-05-27T07:59:50;17.34;69.84
67942;SHT31;54731;42.600;23.476;2023-05-27T08:02:15;17.38;70.76
67942;SHT31;54731;42.600;23.476;2023-05-27T08:04:40;17.37;70.64
67942;SHT31;54731;42.600;23.476;2023-05-27T08:07:06;17.41;71.19
67942;SHT31;54731;42.600;23.476;2023-05-27T08:09:31;17.44;71.64
67942;SHT31;54731;42.600;23.476;2023-05-27T08:11:56;17.55;71.85
67942;SHT31;54731;42.600;23.476;2023-05-27T08:14:22;17.36;69.01
67942;SHT31;54731;42.600;23.476;2023-05-27T08:16:47;17.38;70.05
67942;SHT31;54731;42.600;23.476;2023-05-27T08:19:12;17.34;70.79
67942;SHT31;54731;42.600;23.476;2023-05-27T08:21:38;17.33;70.87
67942;SHT31;54731;42.600;23.476;2023-05-27T08:24:03;17.40;71.27
67942;SHT31;54731;42.600;23.476;2023-05-27T08:26:28;17.30;70.73
67942;SHT31;54731;42.600;23.476;2023-05-27T08:28:54;17.44;70.99
67942;SHT31;54731;42.600;23.476;2023-05-27T08:31:19;17.40;68.57
67942;SHT31;54731;42.600;23.476;2023-05-27T08:33:44;17.46;69.49
67942;SHT31;54731;42.600;23.476;2023-05-27T08:36:09;17.47;68.94
67942;SHT31;54731;42.600;23.476;2023-05-27T08:38:35;17.58;69.45
67942;SHT31;54731;42.600;23.476;2023-05-27T08:41:00;17.63;69.50
67942;SHT31;54731;42.600;23.476;2023-05-27T08:43:26;17.58;69.03
67942;SHT31;54731;42.600;23.476;2023-05-27T08:45:51;17.66;68.11
67942;SHT31;54731;42.600;23.476;2023-05-27T08:48:16;17.70;67.03
67942;SHT31;54731;42.600;23.476;2023-05-27T08:50:42;17.68;65.23
67942;SHT31;54731;42.600;23.476;2023-05-27T08:53:08;17.82;65.64
67942;SHT31;54731;42.600;23.476;2023-05-27T08:55:34;17.91;65.29
67942;SHT31;54731;42.600;23.476;2023-05-27T08:58:01;17.94;69.16
67942;SHT31;54731;42.600;23.476;2023-05-27T09:00:28;18.06;67.39
67942;SHT31;54731;42.600;23.476;2023-05-27T09:02:53;17.98;68.69
67942;SHT31;54731;42.600;23.476;2023-05-27T09:05:18;18.01;69.29
67942;SHT31;54731;42.600;23.476;2023-05-27T09:07:44;18.28;67.43
67942;SHT31;54731;42.600;23.476;2023-05-27T09:10:09;18.41;66.58
67942;SHT31;54731;42.600;23.476;2023-05-27T09:12:35;18.55;67.76
67942;SHT31;54731;42.600;23.476;2023-05-27T09:15:01;18.60;66.57
67942;SHT31;54731;42.600;23.476;2023-05-27T09:17:27;18.76;66.21
67942;SHT31;54731;42.600;23.476;2023-05-27T09:19:53;18.87;65.96
67942;SHT31;54731;42.600;23.476;2023-05-27T09:22:24;19.04;65.20
67942;SHT31;54731;42.600;23.476;2023-05-27T09:24:52;19.23;65.66
67942;SHT31;54731;42.600;23.476;2023-05-27T09:27:17;19.32;62.12
67942;SHT31;54731;42.600;23.476;2023-05-27T09:29:43;19.28;63.25
67942;SHT31;54731;42.600;23.476;2023-05-27T09:32:08;19.26;63.47
67942;SHT31;54731;42.600;23.476;2023-05-27T09:34:40;19.38;63.09
67942;SHT31;54731;42.600;23.476;2023-05-27T09:37:11;19.58;62.55
67942;SHT31;54731;42.600;23.476;2023-05-27T09:39:38;19.79;61.84
67942;SHT31;54731;42.600;23.476;2023-05-27T09:42:04;19.92;62.54
67942;SHT31;54731;42.600;23.476;2023-05-27T09:44:30;20.09;61.25
67942;SHT31;54731;42.600;23.476;2023-05-27T09:46:57;20.04;60.80
67942;SHT31;54731;42.600;23.476;2023-05-27T09:49:25;20.23;61.26
67942;SHT31;54731;42.600;23.476;2023-05-27T09:51:51;20.37;60.78
67942;SHT31;54731;42.600;23.476;2023-05-27T09:54:18;20.54;60.61
67942;SHT31;54731;42.600;23.476;2023-05-27T09:56:44;20.44;59.55
67942;SHT31;54731;42.600;23.476;2023-05-27T09:59:10;20.57;62.30
67942;SHT31;54731;42.600;23.476;2023-05-27T10:01:36;20.63;61.06
67942;SHT31;54731;42.600;23.476;2023-05-27T10:04:02;20.81;63.24
67942;SHT31;54731;42.600;23.476;2023-05-27T10:06:28;20.90;63.35
67942;SHT31;54731;42.600;23.476;2023-05-27T10:08:54;20.93;60.29
67942;SHT31;54731;42.600;23.476;2023-05-27T10:11:19;21.01;59.57
67942;SHT31;54731;42.600;23.476;2023-05-27T10:13:45;21.14;59.95
67942;SHT31;54731;42.600;23.476;2023-05-27T10:16:25;21.23;57.33
67942;SHT31;54731;42.600;23.476;2023-05-27T10:18:55;21.32;58.52
67942;SHT31;54731;42.600;23.476;2023-05-27T10:21:22;21.38;58.76
67942;SHT31;54731;42.600;23.476;2023-05-27T10:23:57;21.55;58.61
67942;SHT31;54731;42.600;23.476;2023-05-27T10:26:59;21.57;56.82
67942;SHT31;54731;42.600;23.476;2023-05-27T10:29:35;21.55;56.98
67942;SHT31;54731;42.600;23.476;2023-05-27T10:32:01;21.66;56.99
67942;SHT31;54731;42.600;23.476;2023-05-27T10:34:37;21.47;55.39
67942;SHT31;54731;42.600;23.476;2023-05-27T10:37:03;21.49;57.42
67942;SHT31;54731;42.600;23.476;2023-05-27T10:39:29;21.68;57.63
67942;SHT31;54731;42.600;23.476;2023-05-27T10:41:55;21.75;55.91
67942;SHT31;54731;42.600;23.476;2023-05-27T10:44:33;21.69;56.17
67942;SHT31;54731;42.600;23.476;2023-05-27T10:47:17;21.74;56.79
67942;SHT31;54731;42.600;23.476;2023-05-27T10:49:46;21.83;56.25
67942;SHT31;54731;42.600;23.476;2023-05-27T10:52:15;21.93;57.16
67942;SHT31;54731;42.600;23.476;2023-05-27T10:54:44;21.85;57.57
67942;SHT31;54731;42.600;23.476;2023-05-27T10:57:09;21.90;56.69
67942;SHT31;54731;42.600;23.476;2023-05-27T10:59:50;22.00;55.91
67942;SHT31;54731;42.600;23.476;2023-05-27T11:02:17;22.06;56.96
67942;SHT31;54731;42.600;23.476;2023-05-27T11:04:42;22.17;56.89
67942;SHT31;54731;42.600;23.476;2023-05-27T11:07:08;22.00;56.29
67942;SHT31;54731;42.600;23.476;2023-05-27T11:09:44;21.79;56.77
67942;SHT31;54731;42.600;23.476;2023-05-27T11:12:13;21.96;55.97
67942;SHT31;54731;42.600;23.476;2023-05-27T11:14:38;22.02;57.89
67942;SHT31;54731;42.600;23.476;2023-05-27T11:17:04;22.09;57.85
67942;SHT31;54731;42.600;23.476;2023-05-27T11:19:29;22.19;57.93
67942;SHT31;54731;42.600;23.476;2023-05-27T11:21:54;22.16;57.41
67942;SHT31;54731;42.600;23.476;2023-05-27T11:24:20;22.19;57.98
67942;SHT31;54731;42.600;23.476;2023-05-27T11:26:46;21.81;57.78
67942;SHT31;54731;42.600;23.476;2023-05-27T11:29:12;21.83;58.38
67942;SHT31;54731;42.600;23.476;2023-05-27T11:31:39;21.78;57.57
67942;SHT31;54731;42.600;23.476;2023-05-27T11:34:04;22.05;56.46
67942;SHT31;54731;42.600;23.476;2023-05-27T11:36:29;22.22;56.09
67942;SHT31;54731;42.600;23.476;2023-05-27T11:38:57;22.39;56.59
67942;SHT31;54731;42.600;23.476;2023-05-27T11:41:25;22.54;55.63
67942;SHT31;54731;42.600;23.476;2023-05-27T11:43:58;22.36;56.85
67942;SHT31;54731;42.600;23.476;2023-05-27T11:46:36;22.64;56.13
67942;SHT31;54731;42.600;23.476;2023-05-27T11:49:05;22.56;53.62
67942;SHT31;54731;42.600;23.476;2023-05-27T11:51:32;22.46;55.07
67942;SHT31;54731;42.600;23.476;2023-05-27T11:53:58;22.57;55.54
67942;SHT31;54731;42.600;23.476;2023-05-27T11:56:24;22.56;54.76
67942;SHT31;54731;42.600;23.476;2023-05-27T11:58:49;23.01;54.14
67942;SHT31;54731;42.600;23.476;2023-05-27T12:01:14;23.29;53.42
67942;SHT31;54731;42.600;23.476;2023-05-27T12:03:40;23.51;52.27
67942;SHT31;54731;42.600;23.476;2023-05-27T12:06:05;23.65;50.52
67942;SHT31;54731;42.600;23.476;2023-05-27T12:08:30;23.70;52.50
67942;SHT31;54731;42.600;23.476;2023-05-27T12:10:56;23.90;51.68
67942;SHT31;54731;42.600;23.476;2023-05-27T12:13:21;23.48;51.18
67942;SHT31;54731;42.600;23.476;2023-05-27T12:15:50;23.66;51.40
67942;SHT31;54731;42.600;23.476;2023-05-27T12:18:16;23.93;51.87
67942;SHT31;54731;42.600;23.476;2023-05-27T12:20:41;23.85;50.70
67942;SHT31;54731;42.600;23.476;2023-05-27T12:23:07;23.75;51.39
67942;SHT31;54731;42.600;23.476;2023-05-27T12:25:32;23.76;49.36
67942;SHT31;54731;42.600;23.476;2023-05-27T12:27:58;24.27;50.08
67942;SHT31;54731;42.600;23.476;2023-05-27T12:30:23;24.37;49.55
67942;SHT31;54731;42.600;23.476;2023-05-27T12:32:49;24.82;49.16
67942;SHT31;54731;42.600;23.476;2023-05-27T12:35:14;25.18;47.17
67942;SHT31;54731;42.600;23.476;2023-05-27T12:37:40;25.35;47.34
67942;SHT31;54731;42.600;23.476;2023-05-27T12:40:06;24.90;48.50
67942;SHT31;54731;42.600;23.476;2023-05-27T12:42:32;24.90;46.78
67942;SHT31;54731;42.600;23.476;2023-05-27T12:44:58;25.12;47.48
67942;SHT31;54731;42.600;23.476;2023-05-27T12:47:23;25.22;48.34
67942;SHT31;54731;42.600;23.476;2023-05-27T12:49:48;25.58;47.95
67942;SHT31;54731;42.600;23.476;2023-05-27T12:52:14;25.72;45.74
67942;SHT31;54731;42.600;23.476;2023-05-27T12:54:39;25.56;47.21
67942;SHT31;54731;42.600;23.476;2023-05-27T12:57:05;25.56;47.25
67942;SHT31;54731;42.600;23.476;2023-05-27T12:59:31;25.22;47.74
67942;SHT31;54731;42.600;23.476;2023-05-27T13:01:56;25.79;48.06
67942;SHT31;54731;42.600;23.476;2023-05-27T13:04:22;26.30;47.28
67942;SHT31;54731;42.600;23.476;2023-05-27T13:06:47;25.56;46.02
67942;SHT31;54731;42.600;23.476;2023-05-27T13:09:12;26.07;46.23
67942;SHT31;54731;42.600;23.476;2023-05-27T13:11:38;26.38;44.83
67942;SHT31;54731;42.600;23.476;2023-05-27T13:14:03;26.72;44.94
67942;SHT31;54731;42.600;23.476;2023-05-27T13:16:28;27.42;43.04
67942;SHT31;54731;42.600;23.476;2023-05-27T13:18:54;28.08;42.33
67942;SHT31;54731;42.600;23.476;2023-05-27T13:21:19;28.27;43.40
67942;SHT31;54731;42.600;23.476;2023-05-27T13:23:44;28.83;40.12
67942;SHT31;54731;42.600;23.476;2023-05-27T13:26:09;29.25;41.02
67942;SHT31;54731;42.600;23.476;2023-05-27T13:28:35;29.40;39.11
67942;SHT31;54731;42.600;23.476;2023-05-27T13:31:00;29.10;37.95
67942;SHT31;54731;42.600;23.476;2023-05-27T13:33:25;28.96;38.98
67942;SHT31;54731;42.600;23.476;2023-05-27T13:35:51;29.26;38.87
67942;SHT31;54731;42.600;23.476;2023-05-27T13:38:16;29.56;38.30
67942;SHT31;54731;42.600;23.476;2023-05-27T13:40:41;30.04;36.82
67942;SHT31;54731;42.600;23.476;2023-05-27T13:43:07;30.41;37.68
67942;SHT31;54731;42.600;23.476;2023-05-27T13:45:32;30.57;36.96
67942;SHT31;54731;42.600;23.476;2023-05-27T13:47:57;30.44;37.86
67942;SHT31;54731;42.600;23.476;2023-05-27T13:50:23;30.65;36.33
67942;SHT31;54731;42.600;23.476;2023-05-27T13:52:48;30.51;36.82
67942;SHT31;54731;42.600;23.476;2023-05-27T13:55:13;30.15;36.84
67942;SHT31;54731;42.600;23.476;2023-05-27T13:57:39;30.10;36.34
67942;SHT31;54731;42.600;23.476;2023-05-27T14:00:04;29.98;36.99
67942;SHT31;54731;42.600;23.476;2023-05-27T14:02:30;30.39;37.99
67942;SHT31;54731;42.600;23.476;2023-05-27T14:04:55;30.11;37.58
67942;SHT31;54731;42.600;23.476;2023-05-27T14:07:20;30.13;36.96
67942;SHT31;54731;42.600;23.476;2023-05-27T14:09:46;30.28;37.13
67942;SHT31;54731;42.600;23.476;2023-05-27T14:12:11;30.86;37.04
67942;SHT31;54731;42.600;23.476;2023-05-27T14:14:37;31.23;35.31
67942;SHT31;54731;42.600;23.476;2023-05-27T14:17:02;31.20;34.13
67942;SHT31;54731;42.600;23.476;2023-05-27T14:19:27;31.12;35.49
67942;SHT31;54731;42.600;23.476;2023-05-27T14:21:53;31.39;35.92
67942;SHT31;54731;42.600;23.476;2023-05-27T14:24:18;31.70;34.46
67942;SHT31;54731;42.600;23.476;2023-05-27T14:26:43;31.61;34.37
67942;SHT31;54731;42.600;23.476;2023-05-27T14:29:09;31.13;34.26
67942;SHT31;54731;42.600;23.476;2023-05-27T14:31:34;31.15;35.93
67942;SHT31;54731;42.600;23.476;2023-05-27T14:33:59;31.00;35.51
67942;SHT31;54731;42.600;23.476;2023-05-27T14:36:24;30.96;36.64
67942;SHT31;54731;42.600;23.476;2023-05-27T14:38:50;30.86;36.11
67942;SHT31;54731;42.600;23.476;2023-05-27T14:41:15;31.04;35.53
67942;SHT31;54731;42.600;23.476;2023-05-27T14:43:40;30.82;36.38
67942;SHT31;54731;42.600;23.476;2023-05-27T14:46:06;30.48;36.12
67942;SHT31;54731;42.600;23.476;2023-05-27T14:48:31;30.07;37.14
67942;SHT31;54731;42.600;23.476;2023-05-27T14:50:56;29.93;36.99
67942;SHT31;54731;42.600;23.476;2023-05-27T14:53:21;29.20;37.54
67942;SHT31;54731;42.600;23.476;2023-05-27T14:55:47;29.03;38.92
67942;SHT31;54731;42.600;23.476;2023-05-27T14:58:12;29.20;38.33
67942;SHT31;54731;42.600;23.476;2023-05-27T15:00:37;29.54;39.49
67942;SHT31;54731;42.600;23.476;2023-05-27T15:03:03;29.74;37.71
67942;SHT31;54731;42.600;23.476;2023-05-27T15:05:28;30.07;35.58
67942;SHT31;54731;42.600;23.476;2023-05-27T15:07:53;30.42;35.54
67942;SHT31;54731;42.600;23.476;2023-05-27T15:10:19;30.42;34.81
67942;SHT31;54731;42.600;23.476;2023-05-27T15:12:46;30.47;34.72